Iron, Minnesota
Current Conditions -  °F | °C
As of 8:11 PM on Saturday 25 Oct 2014 (Local Time) from KEVM Reporting Station
Clear Clear  
Wind Chill: 41°   Ceiling: Unl
Heat Index: 45°   Visibility: 10mi
Dew Point: 27°   Wind: 7mph
Humidity: 49%   Direction: 280°W
Pressure: 29.98"   Gusts: NA
Location:  47.41°N, 92.65°W
Report Text: KEVM 260111Z AUTO 28006KT 10SM CLR 07/M03 A2998 RMK AO2
Loading
Personal Weather Stations






























Interactive Weather Map
Tropical Storm Tracking
New forecast layout! Learn more

10-Day Weather Forecast

Advertisements
Track Severe Weather on mobile